createdAt,value
2022-11-20T00:00:00.838Z,82.18
2022-11-20T00:00:49.077Z,82.59
2022-11-20T00:01:37.141Z,82.44
2022-11-20T00:02:26.318Z,82.25
2022-11-20T00:03:15.203Z,82.24
2022-11-20T00:04:03.429Z,82.42
2022-11-20T00:04:51.355Z,82.55
2022-11-20T00:05:38.406Z,82.43
2022-11-20T00:06:25.921Z,82.55
2022-11-20T00:07:12.943Z,82.78
2022-11-20T00:07:59.926Z,82.74
2022-11-20T00:08:47.562Z,82.74
2022-11-20T00:09:34.598Z,83.07
2022-11-20T00:10:21.705Z,83.36
2022-11-20T00:11:15.993Z,83.33
2022-11-20T00:12:03.770Z,83.48
2022-11-20T00:12:50.953Z,83.63
2022-11-20T00:13:38.007Z,83.70
2022-11-20T00:14:25.052Z,83.81
2022-11-20T00:15:12.055Z,83.82
2022-11-20T00:16:00.227Z,83.81
2022-11-20T00:16:47.587Z,83.67
2022-11-20T00:17:34.647Z,83.93
2022-11-20T00:18:21.605Z,84.28
2022-11-20T00:19:08.845Z,84.51
2022-11-20T00:19:55.861Z,85.01
2022-11-20T00:20:42.918Z,85.14
2022-11-20T00:21:30.555Z,85.06
2022-11-20T00:22:17.662Z,84.81
2022-11-20T00:23:04.677Z,84.57
2022-11-20T00:23:54.903Z,84.40
2022-11-20T00:24:43.276Z,84.45
2022-11-20T00:25:30.425Z,84.72
2022-11-20T00:26:19.358Z,85.14
2022-11-20T00:27:06.350Z,85.47
2022-11-20T00:27:53.368Z,85.00
2022-11-20T00:28:40.387Z,84.35
2022-11-20T00:29:27.317Z,84.57
2022-11-20T00:30:15.245Z,84.60
2022-11-20T00:31:10.926Z,84.68
2022-11-20T00:31:57.847Z,84.76
2022-11-20T00:32:44.867Z,84.83
2022-11-20T00:33:32.387Z,85.30
2022-11-20T00:34:19.417Z,85.58
2022-11-20T00:35:06.727Z,85.75
2022-11-20T00:35:53.777Z,85.76
2022-11-20T00:36:40.745Z,85.76
2022-11-20T00:37:28.000Z,85.47
2022-11-20T00:38:14.864Z,85.44
2022-11-20T00:39:01.843Z,85.66
2022-11-20T00:39:48.856Z,85.72
2022-11-20T00:40:35.825Z,85.51
2022-11-20T00:41:23.646Z,85.66
2022-11-20T00:42:10.707Z,85.58
2022-11-20T00:42:57.667Z,85.71
2022-11-20T00:43:44.879Z,85.90
2022-11-20T00:44:31.886Z,86.00
2022-11-20T00:45:18.882Z,86.09
2022-11-20T00:46:10.205Z,86.28
2022-11-20T00:46:57.287Z,86.54
2022-11-20T00:47:44.296Z,87.11
2022-11-20T00:48:31.494Z,87.08
2022-11-20T00:49:18.842Z,86.85
2022-11-20T00:50:06.359Z,87.06
2022-11-20T00:50:53.426Z,87.21
2022-11-20T00:51:40.367Z,87.01
2022-11-20T00:52:27.325Z,87.01
2022-11-20T00:53:14.408Z,86.98
2022-11-20T00:54:03.257Z,86.85
2022-11-20T00:54:50.225Z,86.65
2022-11-20T00:55:37.225Z,87.07
2022-11-20T00:56:24.207Z,87.42
2022-11-20T00:57:11.218Z,87.41
2022-11-20T00:57:58.224Z,87.47
2022-11-20T00:58:46.887Z,87.56
2022-11-20T00:59:33.845Z,87.66
2022-11-20T01:00:20.851Z,87.59
2022-11-20T01:01:09.966Z,87.59
2022-11-20T01:01:56.954Z,88.16
2022-11-20T01:02:43.978Z,88.38
2022-11-20T01:03:33.556Z,88.44
2022-11-20T01:04:20.497Z,88.50
2022-11-20T01:05:07.677Z,88.60
2022-11-20T01:05:54.668Z,88.77
2022-11-20T01:06:41.748Z,88.71
2022-11-20T01:07:28.683Z,88.59
2022-11-20T01:08:15.727Z,88.41
2022-11-20T01:09:07.177Z,88.52
2022-11-20T01:09:54.107Z,88.30
2022-11-20T01:10:41.801Z,88.22
2022-11-20T01:11:31.068Z,88.33
2022-11-20T01:12:18.027Z,88.62
2022-11-20T01:13:25.753Z,88.32
2022-11-20T01:14:17.608Z,88.32
2022-11-20T01:15:04.937Z,88.43
2022-11-20T01:15:51.975Z,88.68
2022-11-20T01:16:41.229Z,88.45
2022-11-20T01:17:28.138Z,88.46
2022-11-20T01:18:15.132Z,88.95
2022-11-20T01:19:04.654Z,89.10
2022-11-20T01:19:52.068Z,89.21
2022-11-20T01:20:39.056Z,89.04
2022-11-20T01:21:27.626Z,89.17
2022-11-20T01:22:14.574Z,89.08
2022-11-20T01:23:01.547Z,89.20
2022-11-20T01:23:49.451Z,90.25
2022-11-20T01:24:36.550Z,90.01
2022-11-20T01:25:23.503Z,89.72
2022-11-20T01:26:13.038Z,89.28
2022-11-20T01:27:00.105Z,89.03
2022-11-20T01:27:47.098Z,88.81
2022-11-20T01:28:34.597Z,88.58
2022-11-20T01:29:24.607Z,88.30
2022-11-20T01:30:12.406Z,88.10
2022-11-20T01:30:59.839Z,87.97
2022-11-20T01:31:46.967Z,88.13
2022-11-20T01:32:34.134Z,88.13
2022-11-20T01:33:21.095Z,87.99
2022-11-20T01:34:13.457Z,87.90
2022-11-20T01:35:00.496Z,88.12
2022-11-20T01:35:47.765Z,88.01
2022-11-20T01:36:37.153Z,87.68
2022-11-20T01:37:24.068Z,87.64
2022-11-20T01:38:11.076Z,87.95
2022-11-20T01:39:00.854Z,88.15
2022-11-20T01:39:47.827Z,88.36
2022-11-20T01:40:34.755Z,88.90
2022-11-20T01:41:41.638Z,89.09
2022-11-20T01:42:47.587Z,89.28
2022-11-20T01:43:34.825Z,89.49
2022-11-20T01:44:24.137Z,89.04
2022-11-20T01:45:48.168Z,88.98
2022-11-20T01:46:37.998Z,88.88
2022-11-20T01:47:31.148Z,89.54
2022-11-20T01:48:19.554Z,89.51
2022-11-20T01:49:09.158Z,89.41
2022-11-20T01:50:02.048Z,89.38
2022-11-20T01:50:49.536Z,89.20
2022-11-20T01:51:40.832Z,89.24
2022-11-20T01:52:41.410Z,89.66
2022-11-20T01:53:33.178Z,89.81
2022-11-20T01:54:25.226Z,89.73
2022-11-20T01:55:16.559Z,89.70
2022-11-20T01:56:04.850Z,89.95
2022-11-20T01:56:53.326Z,90.03
2022-11-20T01:57:41.096Z,90.24
2022-11-20T01:58:33.934Z,90.29
2022-11-20T01:59:21.423Z,90.26
2022-11-20T02:00:12.476Z,90.20
2022-11-20T02:01:00.648Z,90.01
2022-11-20T02:01:47.829Z,89.91
2022-11-20T02:02:35.683Z,90.01
2022-11-20T02:03:22.636Z,90.11
2022-11-20T02:04:09.930Z,90.25
2022-11-20T02:04:59.088Z,90.36
2022-11-20T02:06:14.673Z,90.54
2022-11-20T02:07:02.655Z,90.74
2022-11-20T02:07:49.689Z,90.79
2022-11-20T02:08:37.139Z,90.78
2022-11-20T02:09:24.259Z,90.67
2022-11-20T02:10:11.467Z,90.58
2022-11-20T02:10:58.597Z,90.77
2022-11-20T02:11:45.557Z,91.01
2022-11-20T02:12:50.997Z,91.03
2022-11-20T02:13:46.882Z,90.89
2022-11-20T02:14:33.827Z,90.63
2022-11-20T02:15:20.757Z,90.56
2022-11-20T02:16:11.746Z,90.51
2022-11-20T02:16:58.726Z,90.16
2022-11-20T02:17:45.597Z,90.24
2022-11-20T02:18:32.502Z,90.33
2022-11-20T02:19:32.638Z,90.58
2022-11-20T02:20:19.522Z,91.02
2022-11-20T02:21:41.998Z,90.74
2022-11-20T02:23:01.797Z,90.46
2022-11-20T02:24:00.746Z,90.42
2022-11-20T02:24:47.949Z,90.39
2022-11-20T02:25:35.178Z,90.36
2022-11-20T02:26:23.437Z,90.63
2022-11-20T02:27:12.814Z,91.11
2022-11-20T02:27:59.901Z,91.47
2022-11-20T02:28:46.757Z,92.26
2022-11-20T02:29:36.848Z,92.52
2022-11-20T02:30:23.801Z,92.32
2022-11-20T02:31:10.637Z,92.48
2022-11-20T02:31:59.188Z,92.50
2022-11-20T02:32:46.068Z,92.67
2022-11-20T02:33:33.032Z,92.67
2022-11-20T02:34:19.918Z,92.46
2022-11-20T02:35:20.328Z,92.44
2022-11-20T02:36:10.757Z,92.43
2022-11-20T02:36:58.138Z,92.85
2022-11-20T02:37:45.608Z,92.78
2022-11-20T02:38:32.872Z,92.68
2022-11-20T02:39:20.815Z,92.65
2022-11-20T02:40:08.709Z,92.59
2022-11-20T02:40:55.965Z,92.41
2022-11-20T02:41:42.937Z,92.19
2022-11-20T02:42:29.846Z,92.40
2022-11-20T02:43:17.401Z,92.33
2022-11-20T02:44:05.265Z,92.06
2022-11-20T02:44:52.076Z,91.93
2022-11-20T02:45:39.137Z,92.03
2022-11-20T02:46:25.992Z,92.19
2022-11-20T02:47:12.866Z,92.23
2022-11-20T02:47:59.825Z,92.27
2022-11-20T02:48:46.786Z,92.34
2022-11-20T02:49:34.206Z,92.40
2022-11-20T02:50:21.202Z,92.28
2022-11-20T02:51:08.208Z,92.15
2022-11-20T02:51:55.050Z,91.96
2022-11-20T02:52:42.485Z,91.76
2022-11-20T02:53:29.668Z,91.54
2022-11-20T02:54:16.461Z,91.27
2022-11-20T02:55:03.998Z,91.10
2022-11-20T02:55:50.867Z,91.13
2022-11-20T02:56:39.761Z,91.50
2022-11-20T02:57:26.666Z,91.90
2022-11-20T02:58:13.656Z,92.14
2022-11-20T02:59:00.497Z,92.18
2022-11-20T02:59:47.387Z,92.02
2022-11-20T03:00:34.894Z,91.72
2022-11-20T03:01:21.807Z,91.42
2022-11-20T03:02:08.667Z,91.45
2022-11-20T03:02:55.548Z,91.62
2022-11-20T03:03:42.428Z,91.91
2022-11-20T03:04:29.451Z,92.07
2022-11-20T03:05:16.457Z,92.18
2022-11-20T03:06:03.466Z,92.16
2022-11-20T03:06:50.332Z,92.31
2022-11-20T03:07:37.275Z,92.48
2022-11-20T03:08:24.106Z,92.45
2022-11-20T03:09:11.028Z,91.96
2022-11-20T03:09:57.907Z,92.17
2022-11-20T03:10:44.766Z,92.14
2022-11-20T03:11:31.649Z,92.23
2022-11-20T03:12:18.567Z,92.32
2022-11-20T03:13:05.893Z,92.37
2022-11-20T03:13:53.047Z,92.35
2022-11-20T03:14:41.967Z,92.20
2022-11-20T03:15:30.587Z,92.00
2022-11-20T03:16:21.578Z,92.04
2022-11-20T03:17:09.337Z,92.15
2022-11-20T03:17:57.367Z,91.86
2022-11-20T03:18:45.299Z,91.47
2022-11-20T03:19:33.750Z,91.29
2022-11-20T03:20:21.865Z,91.24
2022-11-20T03:21:11.607Z,91.02
2022-11-20T03:21:59.587Z,90.57
2022-11-20T03:22:46.758Z,90.78
2022-11-20T03:23:34.298Z,90.99
2022-11-20T03:24:21.177Z,90.72
2022-11-20T03:25:08.577Z,90.51
2022-11-20T03:25:55.508Z,90.37
2022-11-20T03:26:42.447Z,90.87
2022-11-20T03:27:33.837Z,91.39
2022-11-20T03:29:07.558Z,91.15
2022-11-20T03:29:54.489Z,91.50
2022-11-20T03:30:42.137Z,91.95
2022-11-20T03:31:37.037Z,92.04
2022-11-20T03:32:23.927Z,92.19
2022-11-20T03:33:11.018Z,92.50
2022-11-20T03:33:59.031Z,92.51
2022-11-20T03:34:45.849Z,92.28
2022-11-20T03:35:32.725Z,92.14
2022-11-20T03:36:20.926Z,92.26
2022-11-20T03:37:07.878Z,92.50
2022-11-20T03:37:54.646Z,92.86
2022-11-20T03:38:42.268Z,92.93
2022-11-20T03:39:29.114Z,92.99
2022-11-20T03:40:16.039Z,93.03
2022-11-20T03:41:05.398Z,93.17
2022-11-20T03:41:52.315Z,93.40
2022-11-20T03:42:48.341Z,93.54
2022-11-20T03:43:35.537Z,93.57
2022-11-20T03:44:22.738Z,93.52
2022-11-20T03:45:09.979Z,93.74
2022-11-20T03:45:57.019Z,93.94
2022-11-20T03:46:43.837Z,94.15
2022-11-20T03:47:30.688Z,94.31
2022-11-20T03:48:17.508Z,93.91
2022-11-20T03:49:04.823Z,93.84
2022-11-20T03:49:51.639Z,94.01
2022-11-20T03:50:38.426Z,94.44
2022-11-20T03:51:33.277Z,94.46
2022-11-20T03:52:20.186Z,94.68
2022-11-20T03:53:07.018Z,95.12
2022-11-20T03:53:55.587Z,94.99
2022-11-20T03:54:42.407Z,95.11
2022-11-20T03:55:29.266Z,94.92
2022-11-20T03:56:19.232Z,94.59
2022-11-20T03:57:06.187Z,94.38
2022-11-20T03:57:53.107Z,94.29
2022-11-20T03:58:40.777Z,94.32
2022-11-20T03:59:27.608Z,94.47
2022-11-20T04:00:15.088Z,94.64
2022-11-20T04:01:14.502Z,94.55
2022-11-20T04:02:01.432Z,94.58
2022-11-20T04:02:48.349Z,94.99
2022-11-20T04:03:36.256Z,95.07
2022-11-20T04:04:23.117Z,94.98
2022-11-20T04:05:09.963Z,94.79
2022-11-20T04:05:56.856Z,94.34
2022-11-20T04:06:43.666Z,93.94
2022-11-20T04:07:30.587Z,94.03
2022-11-20T04:08:17.458Z,93.95
2022-11-20T04:09:04.767Z,94.04
2022-11-20T04:09:51.646Z,94.15
2022-11-20T04:10:38.868Z,94.33
2022-11-20T04:11:28.548Z,94.29
2022-11-20T04:12:15.387Z,94.24
2022-11-20T04:13:02.457Z,94.56
2022-11-20T04:13:56.517Z,94.56
2022-11-20T04:14:43.395Z,94.50
2022-11-20T04:15:32.345Z,94.45
2022-11-20T04:16:23.737Z,94.41
2022-11-20T04:17:10.597Z,94.59
2022-11-20T04:17:57.478Z,94.64
2022-11-20T04:18:45.135Z,94.44
2022-11-20T04:19:32.039Z,94.61
2022-11-20T04:20:18.857Z,94.93
2022-11-20T04:21:06.418Z,95.09
2022-11-20T04:21:53.239Z,94.98
2022-11-20T04:22:40.086Z,94.56
2022-11-20T04:23:28.989Z,94.31
2022-11-20T04:24:16.019Z,93.96
2022-11-20T04:25:02.906Z,93.62
2022-11-20T04:25:49.775Z,93.66
2022-11-20T04:26:36.606Z,93.94
2022-11-20T04:27:23.457Z,94.23
2022-11-20T04:28:10.647Z,94.27
2022-11-20T04:28:58.777Z,94.44
2022-11-20T04:29:45.680Z,94.97
2022-11-20T04:30:32.588Z,94.86
2022-11-20T04:31:22.241Z,94.90
2022-11-20T04:32:09.057Z,94.39
2022-11-20T04:32:55.897Z,94.31
2022-11-20T04:33:43.159Z,94.43
2022-11-20T04:34:30.077Z,94.56
2022-11-20T04:35:16.978Z,94.69
2022-11-20T04:36:21.379Z,94.80
2022-11-20T04:37:08.237Z,94.16
2022-11-20T04:37:55.109Z,94.15
2022-11-20T04:38:42.059Z,94.12
2022-11-20T04:39:28.977Z,94.10
2022-11-20T04:40:15.917Z,93.87
2022-11-20T04:41:05.008Z,93.67
2022-11-20T04:42:11.797Z,93.49
2022-11-20T04:42:58.674Z,93.59
2022-11-20T04:43:50.055Z,93.45
2022-11-20T04:44:36.887Z,93.16
2022-11-20T04:45:24.456Z,92.97
2022-11-20T04:46:11.377Z,92.72
2022-11-20T04:46:58.197Z,92.66
2022-11-20T04:47:45.097Z,92.50
2022-11-20T04:48:32.066Z,92.55
2022-11-20T04:49:19.047Z,92.67
2022-11-20T04:50:06.637Z,92.78
2022-11-20T04:50:54.202Z,92.82
2022-11-20T04:51:41.050Z,93.29
2022-11-20T04:52:27.927Z,93.25
2022-11-20T04:53:14.958Z,93.26
2022-11-20T04:54:02.246Z,93.46
2022-11-20T04:54:49.108Z,93.59
2022-11-20T04:55:35.918Z,93.76
2022-11-20T04:56:23.037Z,93.92
2022-11-20T04:57:14.293Z,94.03
2022-11-20T04:58:01.496Z,94.03
2022-11-20T04:58:48.399Z,94.22
2022-11-20T04:59:35.227Z,94.02
2022-11-20T05:00:22.386Z,93.72
2022-11-20T05:01:14.951Z,94.35
2022-11-20T05:02:01.887Z,94.37
2022-11-20T05:02:48.804Z,94.16
2022-11-20T05:03:41.008Z,93.77
2022-11-20T05:04:29.187Z,93.28
2022-11-20T05:05:16.127Z,93.00
2022-11-20T05:06:05.406Z,93.22
2022-11-20T05:06:52.325Z,93.14
2022-11-20T05:07:39.279Z,92.89
2022-11-20T05:08:26.127Z,92.63
2022-11-20T05:09:15.888Z,92.74
2022-11-20T05:10:02.759Z,93.05
2022-11-20T05:10:49.619Z,93.18
2022-11-20T05:11:36.523Z,93.50
2022-11-20T05:12:23.407Z,93.74
2022-11-20T05:13:10.219Z,93.41
2022-11-20T05:13:59.957Z,93.29
2022-11-20T05:14:46.836Z,92.89
2022-11-20T05:15:33.856Z,92.66
2022-11-20T05:16:24.990Z,92.88
2022-11-20T05:17:13.292Z,92.88
2022-11-20T05:18:00.166Z,92.61
2022-11-20T05:18:47.409Z,92.63
2022-11-20T05:19:34.367Z,92.65
2022-11-20T05:20:21.747Z,93.17
2022-11-20T05:21:09.626Z,93.42
2022-11-20T05:21:56.498Z,93.64
2022-11-20T05:22:43.859Z,93.93
2022-11-20T05:23:32.310Z,94.25
2022-11-20T05:24:19.208Z,94.49
2022-11-20T05:25:06.557Z,94.50
2022-11-20T05:25:58.954Z,94.55
2022-11-20T05:26:46.359Z,94.43
2022-11-20T05:27:33.269Z,94.51
2022-11-20T05:28:20.168Z,94.41
2022-11-20T05:29:06.980Z,94.41
2022-11-20T05:29:53.837Z,94.89
2022-11-20T05:30:40.747Z,94.91
2022-11-20T05:31:28.514Z,94.54
2022-11-20T05:32:15.446Z,94.71
2022-11-20T05:33:02.257Z,94.54
2022-11-20T05:33:49.077Z,94.61
2022-11-20T05:34:35.937Z,94.71
2022-11-20T05:35:22.847Z,94.75
2022-11-20T05:36:10.493Z,94.76
2022-11-20T05:36:57.427Z,94.56
2022-11-20T05:37:44.346Z,94.38
2022-11-20T05:38:31.352Z,93.92
2022-11-20T05:39:18.353Z,93.67
2022-11-20T05:40:05.937Z,92.90
2022-11-20T05:40:52.846Z,93.12
2022-11-20T05:41:39.686Z,93.12
2022-11-20T05:42:32.623Z,92.93
2022-11-20T05:43:19.518Z,92.78
2022-11-20T05:44:06.420Z,92.65
2022-11-20T05:44:53.239Z,92.76
2022-11-20T05:45:40.137Z,92.53
2022-11-20T05:46:28.973Z,92.44
2022-11-20T05:47:16.417Z,92.84
2022-11-20T05:48:03.472Z,92.96
2022-11-20T05:48:50.368Z,93.02
2022-11-20T05:49:37.257Z,93.30
2022-11-20T05:50:24.068Z,93.76
2022-11-20T05:51:13.497Z,93.81
2022-11-20T05:52:00.347Z,93.45
2022-11-20T05:52:47.250Z,93.33
2022-11-20T05:53:35.417Z,93.28
2022-11-20T05:54:22.249Z,93.26
2022-11-20T05:55:09.558Z,93.06
2022-11-20T05:56:05.087Z,93.12
2022-11-20T05:56:51.971Z,93.09
2022-11-20T05:57:38.847Z,93.04
2022-11-20T05:58:25.897Z,92.95
2022-11-20T05:59:12.777Z,92.84
2022-11-20T05:59:59.578Z,92.85
2022-11-20T06:00:46.438Z,92.88
2022-11-20T06:01:33.407Z,92.51
2022-11-20T06:02:20.283Z,92.45
2022-11-20T06:03:07.177Z,92.56
2022-11-20T06:03:55.126Z,92.47
2022-11-20T06:04:42.039Z,92.14
2022-11-20T06:05:28.915Z,92.04
2022-11-20T06:06:16.832Z,92.00
2022-11-20T06:07:03.887Z,91.90
2022-11-20T06:07:50.806Z,91.78
2022-11-20T06:08:37.640Z,91.86
2022-11-20T06:09:24.456Z,91.81
2022-11-20T06:10:11.777Z,91.81
2022-11-20T06:10:58.946Z,91.84
2022-11-20T06:11:45.778Z,91.85
2022-11-20T06:12:34.111Z,91.89
2022-11-20T06:13:21.019Z,92.08
2022-11-20T06:14:07.837Z,92.37
2022-11-20T06:14:54.679Z,92.31
2022-11-20T06:15:41.499Z,91.95
2022-11-20T06:16:28.468Z,91.68
2022-11-20T06:17:15.296Z,92.37
2022-11-20T06:18:02.198Z,92.74
2022-11-20T06:18:49.246Z,92.95
2022-11-20T06:19:36.087Z,92.58
2022-11-20T06:20:23.448Z,92.62
2022-11-20T06:21:18.888Z,92.86
2022-11-20T06:22:05.747Z,92.95
2022-11-20T06:22:52.608Z,92.79
2022-11-20T06:23:39.767Z,92.56
2022-11-20T06:24:27.347Z,92.66
2022-11-20T06:25:15.448Z,93.17
2022-11-20T06:26:14.673Z,93.32
2022-11-20T06:27:01.818Z,93.27
2022-11-20T06:27:48.696Z,93.47
2022-11-20T06:28:36.720Z,93.70
2022-11-20T06:29:23.968Z,93.62
2022-11-20T06:30:11.677Z,93.51
2022-11-20T06:31:00.316Z,93.47
2022-11-20T06:31:47.717Z,93.47
2022-11-20T06:32:35.317Z,93.29
2022-11-20T06:33:22.517Z,93.09
2022-11-20T06:34:10.406Z,92.85
2022-11-20T06:34:57.497Z,93.02
2022-11-20T06:35:46.237Z,93.12
2022-11-20T06:36:33.626Z,92.99
2022-11-20T06:37:20.596Z,92.89
2022-11-20T06:38:07.596Z,92.96
2022-11-20T06:38:54.808Z,93.27
2022-11-20T06:39:41.718Z,93.34
2022-11-20T06:40:28.556Z,93.17
2022-11-20T06:41:17.668Z,93.09
2022-11-20T06:42:04.520Z,93.03
2022-11-20T06:42:51.330Z,93.19
2022-11-20T06:43:38.287Z,93.28
2022-11-20T06:44:25.188Z,93.03
2022-11-20T06:45:12.128Z,92.94
2022-11-20T06:46:00.161Z,92.93
2022-11-20T06:46:47.067Z,93.25
2022-11-20T06:47:34.500Z,93.25
2022-11-20T06:48:21.812Z,93.22
2022-11-20T06:49:08.698Z,93.04
2022-11-20T06:49:55.617Z,92.80
2022-11-20T06:50:42.498Z,92.42
2022-11-20T06:51:29.397Z,92.79
2022-11-20T06:52:16.237Z,92.82
2022-11-20T06:53:04.306Z,92.84
2022-11-20T06:53:51.139Z,93.11
2022-11-20T06:54:37.948Z,93.29
2022-11-20T06:55:24.828Z,93.26
2022-11-20T06:56:11.738Z,93.18
2022-11-20T06:56:58.648Z,93.22
2022-11-20T06:57:45.568Z,92.99
2022-11-20T06:58:33.768Z,93.20
2022-11-20T06:59:20.993Z,93.58
2022-11-20T07:00:08.578Z,93.87
2022-11-20T07:00:59.717Z,93.81
2022-11-20T07:01:46.572Z,93.51
2022-11-20T07:02:33.419Z,93.78
2022-11-20T07:03:20.364Z,94.13
2022-11-20T07:04:07.326Z,94.33
2022-11-20T07:04:54.253Z,94.32
2022-11-20T07:05:41.428Z,94.27
2022-11-20T07:06:28.527Z,94.14
2022-11-20T07:07:15.474Z,94.05
2022-11-20T07:08:02.907Z,94.10
2022-11-20T07:08:52.637Z,94.40
2022-11-20T07:09:39.588Z,94.45
2022-11-20T07:10:27.288Z,94.57
2022-11-20T07:11:14.290Z,94.65
2022-11-20T07:12:01.589Z,94.55
2022-11-20T07:12:54.728Z,94.64
2022-11-20T07:13:41.637Z,94.53
2022-11-20T07:14:28.516Z,94.82
2022-11-20T07:15:15.347Z,94.84
2022-11-20T07:16:08.025Z,94.54
2022-11-20T07:16:54.918Z,94.80
2022-11-20T07:17:41.738Z,94.67
2022-11-20T07:18:28.577Z,94.50
2022-11-20T07:19:15.568Z,94.61
2022-11-20T07:20:02.387Z,94.72
2022-11-20T07:20:49.199Z,94.88
2022-11-20T07:21:35.986Z,94.77
2022-11-20T07:22:22.918Z,94.93
2022-11-20T07:23:09.826Z,95.10
2022-11-20T07:23:56.767Z,95.64
2022-11-20T07:24:46.132Z,95.45
2022-11-20T07:25:33.318Z,95.09
2022-11-20T07:26:20.758Z,94.84
2022-11-20T07:27:07.627Z,94.42
2022-11-20T07:27:58.238Z,94.66
2022-11-20T07:28:45.447Z,94.72
2022-11-20T07:29:32.406Z,94.25
2022-11-20T07:30:19.636Z,94.42
2022-11-20T07:31:08.580Z,94.78
2022-11-20T07:31:56.825Z,94.75
2022-11-20T07:32:44.817Z,94.70
2022-11-20T07:33:32.398Z,94.27
2022-11-20T07:34:20.787Z,93.98
2022-11-20T07:35:08.229Z,93.92
2022-11-20T07:35:55.137Z,93.71
2022-11-20T07:36:43.317Z,93.50
2022-11-20T07:37:30.904Z,93.53
2022-11-20T07:38:19.565Z,93.71
2022-11-20T07:39:06.897Z,93.83
2022-11-20T07:39:53.717Z,93.90
2022-11-20T07:40:41.169Z,94.04
2022-11-20T07:41:29.047Z,94.18
2022-11-20T07:42:15.887Z,94.11
2022-11-20T07:43:02.717Z,94.13
2022-11-20T07:43:49.518Z,94.03
2022-11-20T07:44:37.477Z,94.43
2022-11-20T07:45:26.141Z,94.68
2022-11-20T07:46:12.958Z,94.86
2022-11-20T07:47:00.507Z,94.86
2022-11-20T07:47:50.668Z,94.52
2022-11-20T07:48:38.417Z,94.42
2022-11-20T07:49:25.498Z,94.52
2022-11-20T07:50:12.951Z,94.65
2022-11-20T07:51:00.004Z,95.00
2022-11-20T07:51:50.270Z,94.79
2022-11-20T07:52:38.956Z,94.94
2022-11-20T07:53:26.081Z,94.76
2022-11-20T07:54:12.905Z,94.75
2022-11-20T07:54:59.756Z,94.70
2022-11-20T07:55:46.646Z,94.61
2022-11-20T07:56:33.477Z,94.36
2022-11-20T07:57:24.292Z,94.22
2022-11-20T07:58:15.060Z,94.52
2022-11-20T07:59:01.928Z,94.59
2022-11-20T07:59:48.828Z,94.62
2022-11-20T08:00:35.812Z,94.32
2022-11-20T08:01:22.803Z,94.57
2022-11-20T08:02:12.397Z,94.62
2022-11-20T08:02:59.926Z,94.73
2022-11-20T08:03:46.803Z,94.31
2022-11-20T08:04:34.398Z,94.07
2022-11-20T08:05:21.530Z,93.96
2022-11-20T08:06:08.874Z,93.90
2022-11-20T08:06:55.787Z,93.91
2022-11-20T08:07:44.611Z,94.16
2022-11-20T08:08:33.796Z,94.28
2022-11-20T08:09:21.004Z,94.19
2022-11-20T08:10:09.827Z,94.34
2022-11-20T08:11:19.827Z,94.62
2022-11-20T08:12:25.386Z,94.52
2022-11-20T08:13:30.977Z,95.00
2022-11-20T08:14:17.846Z,94.56
2022-11-20T08:15:11.326Z,93.97
2022-11-20T08:15:59.948Z,93.38
2022-11-20T08:16:48.748Z,92.71
2022-11-20T08:17:35.636Z,92.23
2022-11-20T08:18:31.738Z,92.18
2022-11-20T08:19:20.371Z,92.23
2022-11-20T08:20:07.881Z,92.05
2022-11-20T08:20:54.732Z,92.24
2022-11-20T08:21:42.125Z,92.22
2022-11-20T08:22:29.418Z,92.20
2022-11-20T08:23:18.098Z,92.00
2022-11-20T08:24:05.971Z,91.64
2022-11-20T08:24:53.768Z,90.78
2022-11-20T08:25:41.441Z,90.69
2022-11-20T08:26:30.084Z,90.34
2022-11-20T08:27:17.790Z,90.30
2022-11-20T08:28:19.859Z,90.28
2022-11-20T08:29:09.106Z,91.08
2022-11-20T08:29:57.228Z,91.34
2022-11-20T08:30:45.390Z,91.27
2022-11-20T08:31:35.079Z,90.49
2022-11-20T08:32:22.795Z,90.13
2022-11-20T08:33:11.828Z,90.21
2022-11-20T08:34:00.117Z,89.93
2022-11-20T08:34:48.486Z,89.68
2022-11-20T08:35:38.198Z,89.85
2022-11-20T08:36:26.778Z,89.93
2022-11-20T08:37:15.097Z,89.91
2022-11-20T08:38:05.059Z,89.80
2022-11-20T08:38:58.489Z,90.02
2022-11-20T08:39:48.142Z,89.46
2022-11-20T08:40:37.509Z,89.17
2022-11-20T08:41:28.691Z,89.41
2022-11-20T08:42:16.552Z,89.31
2022-11-20T08:43:03.648Z,89.01
2022-11-20T08:43:51.500Z,88.97
2022-11-20T08:44:38.326Z,88.63
2022-11-20T08:45:28.446Z,88.56
2022-11-20T08:46:19.537Z,89.01
2022-11-20T08:47:11.168Z,90.08
2022-11-20T08:48:02.127Z,90.27
2022-11-20T08:48:49.218Z,90.47
2022-11-20T08:49:36.299Z,90.16
2022-11-20T08:50:23.209Z,89.94
2022-11-20T08:51:10.707Z,89.81
2022-11-20T08:51:58.360Z,89.98
2022-11-20T08:52:45.358Z,90.14
2022-11-20T08:53:32.481Z,90.16
2022-11-20T08:54:21.159Z,90.61
2022-11-20T08:55:08.937Z,90.72
2022-11-20T08:55:56.007Z,91.03
2022-11-20T08:56:42.857Z,91.00
2022-11-20T08:57:29.790Z,90.84
2022-11-20T08:58:16.895Z,91.24
2022-11-20T09:00:12.510Z,91.44
2022-11-20T09:00:59.812Z,91.78
2022-11-20T09:01:47.099Z,91.76
2022-11-20T09:02:34.078Z,91.19
2022-11-20T09:03:21.068Z,91.30
2022-11-20T09:04:08.576Z,91.15
2022-11-20T09:04:55.604Z,91.31
2022-11-20T09:05:43.918Z,91.33
2022-11-20T09:06:30.948Z,91.19
2022-11-20T09:07:17.919Z,90.89
2022-11-20T09:08:05.331Z,90.87
2022-11-20T09:08:55.629Z,91.04
2022-11-20T09:09:42.523Z,90.73
2022-11-20T09:10:29.565Z,90.52
2022-11-20T09:11:16.412Z,90.45
2022-11-20T09:12:03.797Z,90.10
2022-11-20T09:12:53.921Z,89.02
2022-11-20T09:13:40.838Z,89.06
2022-11-20T09:14:30.522Z,89.23
2022-11-20T09:15:17.436Z,88.86
2022-11-20T09:16:07.886Z,89.12
2022-11-20T09:16:54.875Z,89.40
2022-11-20T09:17:41.727Z,89.43
2022-11-20T09:18:29.708Z,89.41
2022-11-20T09:20:24.026Z,89.16
2022-11-20T09:21:15.504Z,89.57
2022-11-20T09:22:02.579Z,89.30
2022-11-20T09:22:49.476Z,88.88
2022-11-20T09:23:37.041Z,88.80
2022-11-20T09:24:24.517Z,89.32
2022-11-20T09:25:11.528Z,89.33
2022-11-20T09:26:03.178Z,89.49
2022-11-20T09:26:50.067Z,89.97
2022-11-20T09:27:37.278Z,89.90
2022-11-20T09:28:24.237Z,89.30
2022-11-20T09:29:11.960Z,89.04
2022-11-20T09:29:58.940Z,88.85
2022-11-20T09:30:46.115Z,89.06
2022-11-20T09:31:32.937Z,89.35
2022-11-20T09:32:19.829Z,89.22
2022-11-20T09:33:08.068Z,88.92
2022-11-20T09:33:55.023Z,89.09
2022-11-20T09:34:41.890Z,89.46
2022-11-20T09:35:29.088Z,89.24
2022-11-20T09:36:17.147Z,89.31
2022-11-20T09:37:10.499Z,89.56
2022-11-20T09:37:57.466Z,89.37
2022-11-20T09:38:44.495Z,88.94
2022-11-20T09:39:31.568Z,88.70
2022-11-20T09:40:23.228Z,88.39
2022-11-20T09:41:35.159Z,87.29
2022-11-20T09:42:41.980Z,86.51
2022-11-20T09:44:03.137Z,86.49
2022-11-20T09:44:56.407Z,86.15
2022-11-20T09:45:56.717Z,85.94
2022-11-20T09:47:11.927Z,85.50
2022-11-20T09:48:18.177Z,85.57
2022-11-20T09:49:09.006Z,85.15
2022-11-20T09:50:27.248Z,85.41
2022-11-20T09:51:27.479Z,85.22
2022-11-20T09:52:31.668Z,85.24
2022-11-20T09:53:30.877Z,85.36
2022-11-20T09:54:24.322Z,85.83
2022-11-20T09:55:13.478Z,84.86
2022-11-20T09:56:02.688Z,84.68
2022-11-20T09:57:00.617Z,85.07
2022-11-20T09:57:48.657Z,84.98
2022-11-20T09:58:47.077Z,85.18
2022-11-20T09:59:44.237Z,84.04
2022-11-20T10:00:32.771Z,83.49
2022-11-20T10:01:21.979Z,83.86
2022-11-20T10:02:30.877Z,83.92
2022-11-20T10:03:43.107Z,84.08
2022-11-20T10:04:36.716Z,83.21
2022-11-20T10:05:28.947Z,82.38
2022-11-20T10:06:19.238Z,82.52
2022-11-20T10:07:32.964Z,82.75
2022-11-20T10:08:22.810Z,82.10
2022-11-20T10:09:12.773Z,81.69
2022-11-20T10:09:59.996Z,80.26
2022-11-20T10:10:53.735Z,80.07
2022-11-20T10:11:58.108Z,81.05
2022-11-20T10:13:14.261Z,80.40
2022-11-20T10:14:06.737Z,79.97
2022-11-20T10:14:53.507Z,80.53
2022-11-20T10:15:59.277Z,80.80
2022-11-20T10:17:07.119Z,80.57
2022-11-20T10:18:03.500Z,80.64
2022-11-20T10:19:03.387Z,80.61
2022-11-20T10:20:08.218Z,80.41
2022-11-20T10:21:16.682Z,79.69
2022-11-20T10:22:11.216Z,79.63
2022-11-20T10:22:58.232Z,79.85
2022-11-20T10:23:59.918Z,79.90
2022-11-20T10:24:59.797Z,79.06
2022-11-20T10:26:07.602Z,79.30
2022-11-20T10:27:18.279Z,78.82
2022-11-20T10:28:23.739Z,77.80
2022-11-20T10:29:29.637Z,78.73
2022-11-20T10:30:19.366Z,78.56
2022-11-20T10:31:11.656Z,77.98
2022-11-20T10:32:08.491Z,78.70
2022-11-20T10:33:07.449Z,78.82
2022-11-20T10:34:11.622Z,78.44
2022-11-20T10:35:25.459Z,78.27